Extreme weather reports worldwide

High winds

Station
 
Location
 
Name
 
Wind
Knots
Gust
Knots
Vis
SM
Temp/Dew
C
Baro
inHg
METAR
 
VIL GMMH Dakhla, EH Dakhla Airport 90 4.97 16/12 30.15 GMMH 281000Z 07090KT 8000 NSC 16/12 Q1021 NOSIG
ENDR 47 4/-2 29.70 ENDR 281050Z AUTO 27047KT 9999NDV -SHRA FEW017/// 04/M02 Q1006 W///S6
ENHE 44 6.21 2/-3 29.59 ENHE 281050Z 30044KT 9999 -SHRA SCT020 BKN040 02/M03 Q1002 W///S7
ENUN 39 49 3/0 29.35 ENUN 281050Z AUTO 27039G49KT 9999NDV -SHRA BKN025/// 03/00 Q0994 W07/S7
KMWN 39 42 50 -13/-14 KMWN 281053Z 23039G42KT 50SM BCFG DRSN BKN001 OVC050 M13/M14 RMK VRY LGT ICG

Station
 
Location
 
Name
 
Wind
Knots
Gust
Knots
Vis
SM
Temp/Dew
C
Baro
inHg
METAR
 
ENNE 37 6.21 2/-3 29.50 ENNE 281050Z 27037KT 9999 SCT030TCU BKN040 02/M03 Q0999 W///S7
CPIN 32 39 / CPIN 281000Z AUTO 31032G39KT ////SM ////// ///// A////
CWMT 32 -24/-27 CWMT 281000Z AUTO 00032KT M25/M28 RMK AO1 SOG 30 5001 SLP401 T12491277
YCO CYCO Kugluktuk, CA Kugluktuk Airport 31 36 0 -23/-25 30.56 CYCO 281000Z 33031G36KT 0SM BLSN VV005 M23/M25 A3056 RMK BLSN8 PRESFR SLP353
KRVF 31 36 0.25 -7/-8 29.83 KRVF 281055Z AUTO 02031G36KT M1/4SM -SN OVC003 M07/M08 A2983 RMK AO2
CWDA 30 -10/ CWDA 281000Z AUTO 00030KT M10/ RMK AO1 T1102
CWRU 30 35 5/ CWRU 281000Z AUTO 36030G35KT 06/ RMK AO1 PK WND 00036/0925 SLP213 T0057 58010
RET ENRS NO Røst Airport 30 6.21 2/-3 29.26 ENRS 281050Z 26030KT 9999 FEW023 SCT033 02/M03 Q0991
OTZ PAOT Kotzebue, US Ralph Wien Memorial Airport 30 37 0.25 -12/-13 30.35 PAOT 281053Z AUTO 10030G37KT 1/4SM R09/3000V4000FT +SN FZFG VV007 M12/M13 A3035 RMK AO2 PK WND 10040/1002 SLP277 P0003 T11221133 TSNO $
KUS BGKK Kulusuk, GL Kulusuk Airport 29 41 -4/-5 29.14 BGKK 281050Z AUTO 09029G41KT 0600NDV SN OVC011/// M04/M05 Q0987 RESN
LEBR 28 42 6.21 5/-3 30.12 LEBR 281030Z AUTO 34028G42KT 9999 NCD 05/M03 Q1020
BOO ENBO Bodø, NO Bodø Airport 28 6.21 2/-2 29.32 ENBO 281050Z 26028KT 9999 VCSH FEW002 SCT008 BKN014 02/M02 Q0993 TEMPO 26028G38KT 1500 SHSN BKN009 SCT014CB
K0CO 28 41 -15/-17 29.67 K0CO 281055Z AUTO 29028G41KT M15/M17 A2967 RMK AO2 PWINO
KEKS Ennis, US Ennis Big Sky Airport 28 37 0.75 -8/-9 29.83 KEKS 281055Z AUTO 35028G37KT 3/4SM -SN BKN003 OVC009 M08/M09 A2983 RMK AO2 P0001
KGYF 28 31 10 22/15 30.08 KGYF 281055Z AUTO 13028G31KT 10SM OVC065 22/15 A3008 RMK AO2
CWIJ 27 -27/-30 CWIJ 281000Z AUTO 32027KT M27/M30 RMK AO1 SOG 53 3004 PK WND 32033/0933 SLP282 T12721303
CWWL 27 5/3 CWWL 281000Z AUTO 35027KT 06/04 RMK AO1 PK WND 35032/0948 SLP268 T00550035 58004
YHK CYHK Gjoa Haven, CA Gjoa Haven Airport 27 0.5 -31/-35 29.71 CYHK 281000Z AUTO 32027KT 1/2SM SN BLSN VV003 M31/M35 A2971 RMK SLP073
PLZ FAPE Port Elizabeth, ZA Port Elizabeth Airport 27 38 6.21 26/15 29.82 FAPE 281021Z 24027G38KT 9999 FEW020 26/15 Q1010 NOSIG
OLA ENOL Ørland, NO Ørland Airport 27 6.21 4/0 29.76 ENOL 281050Z 26027KT 9999 VCSH SCT012CB BKN040 04/00 Q1008 TEMPO 27035G48KT SHRAGSSN
BKC PABL Buckland, US Buckland Airport 27 35 0.5 -12/-14 30.36 PABL 281056Z AUTO 12027G35KT 1/2SM -SN FZFG BKN019 OVC023 M12/M14 A3036 RMK AO2 PK WND 11035/1051 SLP282 P0000 T11221144 FZRANO $
CWQP 26 2/0 CWQP 281000Z AUTO 24026KT 02/01 RMK AO1 SOG 14 3008 PK WND 24035/0920 SLP115 T00210005 50007
KIX RJBB Osaka, JP Kansai International Airport 26 6.21 5/-2 29.97 RJBB 281030Z 29026KT 9999 VCSH FEW015 05/M02 Q1015 TEMPO 29026G37KT
HTI YBHM Hamilton Island, AU Hamilton Island Airport 26 6.21 26/24 29.82 YBHM 281030Z AUTO 09026KT 9999 // SCT013 SCT019 BKN025 26/24 Q1010
KSU ENKB Kvernberget, NO Kristiansund Airport (Kvernberget) 26 36 6.21 5/-4 29.85 ENKB 281050Z AUTO 25026G36KT 9999 FEW044/// OVC062/// 05/M04 Q1011 RMK WIND 745FT 26035G49KT
MOL ENML Årø, NO Molde Airport 26 6.21 5/0 29.91 ENML 281050Z 26026KT 9999 -SHRA FEW016CB SCT028 BKN040 05/M00 Q1013
K1KM 26 36 3 -11/-14 29.96 K1KM 281055Z AUTO 36026G36KT 3SM BLSN OVC033 M11/M14 A2996 RMK AO2 PK WND 01036/48 SNE26SNB29E35 SLP208 P0000 T11151143 $
LETU 25 6.21 5/-2 30.18 LETU 281030Z AUTO 34025KT 9999 NCD 05/M02 Q1022
WAA PAIW Wales, US Wales Airport 25 29 1.25 -5/-6 30.24 PAIW 281056Z AUTO 18025G29KT 1 1/4SM -SN BR FEW018 BKN023 OVC030 M05/M06 A3024 RMK AO2 PK WND 18029/1055 WSHFT 0943 SLP240 P0000 T10501061 FZRANO
KWA PKWA Kwajalein, MH Bucholz Army Air Field 25 30 10 27/21 29.81 PKWA 281100Z AUTO 07025G30KT 10SM SCT032 SCT038 SCT046 28/22 A2981 RMK AO2 T02760216
PUQ SCCI Punta Arenas, CL Pdte. Carlos Ibañez del Campo Airport 25 35 6.21 12/5 29.41 SCCI 281100Z 28025G35KT 9999 FEW040 12/05 Q0996 NOSIG
CWHO 24 -24/-30 CWHO 281000Z AUTO 00024KT M25/M31 RMK AO1 SLP176 T12471308 51016
WLG NZWN Wellington, NZ Wellington International Airport 24 2.17 16/16 30.03 NZWN 281030Z AUTO 19024KT 3500 -RA BR BKN005/// 16/16 Q1017
OKA ROAH Naha, JP Naha Airport 24 6.21 13/8 30.15 ROAH 281030Z 35024KT 9999 -SHRA SCT028 SCT050 13/08 Q1021 RMK 4CU028 4SC050 A3016
KIJ RJSN Niigata, JP Niigata Airport 24 34 1.86 0/-2 29.85 RJSN 281038Z 31024G34KT 3000 R28/1000VP2000U -SHSN FEW005 SCT010 BKN015 M00/M02 Q1011 RMK 1ST005 4CU010 6CU015 A2987
ENQA NO Troll A Platform 24 6/2 30.12 ENQA 281050Z AUTO 27024KT 9999NDV BKN051/// 06/02 Q1020 W12/S5
ETM LLER Eilat, IL Ramon Airport 24 6.21 26/8 29.85 LLER 281050Z 18024KT CAVOK 26/08 Q1011
KHHV 24 30 10 21/15 30.07 KHHV 281055Z AUTO 14024G30KT 10SM SCT027 BKN033 BKN075 21/15 A3007 RMK A01
WLK PASK Selawik, US Selawik Airport 24 0.75 -11/-13 30.45 PASK 281056Z AUTO 08024KT 3/4SM -SN BR FEW012 OVC020 M12/M13 A3045 RMK AO2 PK WND 08030/1038 SLP310 P0000 T11171133 FZRANO
CWOB 23 -32/-35 CWOB 281029Z AUTO 27023KT ////SM ////// M32/M35 A////
KEF BIKF Reykjavík, IS Keflavik International Airport 23 5.59 5/5 29.44 BIKF 281030Z 18023KT 9000 -RA BKN012 OVC027 05/05 Q0997
ZAZ LEZG Zaragoza, ES Zaragoza Air Base 23 6.21 7/-2 30.12 LEZG 281030Z 31023KT 280V340 9999 FEW030 07/M02 Q1020
ENGC 23 6.21 5/2 30.12 ENGC 281050Z 29023KT 9999 -SHRA FEW020CB BKN030 05/02 Q1020 W07/S5
ENSF 23 / ENSF 281050Z AUTO 26023KT 9999NDV BKN032/// ///// Q//// W///S6
RHO LGRP Rodes Island, GR Diagoras Airport 23 6.21 16/9 29.82 LGRP 281050Z 25023KT 9999 FEW016TCU SCT018 16/09 Q1010 NOSIG